createdAt,value
2022-08-20T09:53:01.685Z,13992.00
2022-08-20T09:57:35.218Z,16800.00
2022-08-20T09:58:35.195Z,15960.00
2022-08-20T09:59:35.174Z,15420.00
2022-08-20T10:00:35.178Z,13980.00
2022-08-20T10:04:38.342Z,13776.00
2022-08-20T10:06:04.023Z,15176.00
2022-08-20T10:07:04.001Z,15128.00
2022-08-20T10:08:03.974Z,14320.00
2022-08-20T10:17:12.099Z,11868.00
2022-08-20T10:18:12.186Z,11904.00
2022-08-20T10:19:12.059Z,11436.00
2022-08-20T10:28:18.880Z,16832.00
2022-08-20T10:29:18.849Z,16864.00
2022-08-20T10:30:18.849Z,16448.00
2022-08-20T10:31:18.824Z,14428.00
2022-08-20T10:37:10.607Z,12968.00
2022-08-20T10:44:44.512Z,12812.00
2022-08-20T10:45:44.497Z,11952.00
2022-08-20T10:46:44.472Z,11176.00
2022-08-20T11:08:33.697Z,16832.00
2022-08-20T11:09:26.609Z,17088.00
2022-08-20T11:10:26.641Z,17568.00
2022-08-20T11:11:26.572Z,16320.00
2022-08-20T11:12:26.566Z,14660.00
2022-08-20T11:21:42.956Z,17472.00
2022-08-20T11:22:42.928Z,18016.00
2022-08-20T11:23:42.915Z,15712.00
2022-08-20T11:24:42.911Z,11960.00
2022-08-20T11:34:01.405Z,11104.00
2022-08-20T11:35:13.736Z,11812.00
2022-08-20T11:36:01.339Z,13164.00
2022-08-20T11:37:01.338Z,14896.00
2022-08-20T11:38:01.325Z,13896.00
2022-08-20T11:39:01.300Z,12640.00
2022-08-20T11:40:01.302Z,11048.00
2022-08-20T11:44:26.732Z,14128.00
2022-08-20T11:45:26.704Z,13712.00
2022-08-20T11:46:28.714Z,14124.00
2022-08-20T11:47:26.666Z,14460.00
2022-08-20T11:48:26.655Z,13548.00
2022-08-20T11:49:26.649Z,12252.00
2022-08-20T11:50:26.628Z,12316.00
2022-08-20T11:51:26.627Z,11288.00
2022-08-20T11:52:26.601Z,12628.00
2022-08-20T11:53:26.589Z,13668.00
2022-08-20T11:54:26.587Z,13336.00
2022-08-20T11:55:28.463Z,13032.00
2022-08-20T11:56:26.571Z,12400.00
2022-08-20T12:00:32.106Z,13896.00
2022-08-20T12:01:31.018Z,14036.00
2022-08-20T12:02:31.030Z,11524.00
2022-08-20T12:03:30.970Z,10704.00
2022-08-20T12:04:30.956Z,9444.00
2022-08-20T12:09:50.386Z,14396.00
2022-08-20T12:10:45.726Z,15772.00
2022-08-20T12:11:45.726Z,16256.00
2022-08-20T12:12:45.701Z,16256.00
2022-08-20T12:13:48.448Z,15052.00
2022-08-20T12:14:45.685Z,12744.00
2022-08-20T12:15:45.663Z,13192.00
2022-08-20T12:19:06.467Z,17568.00
2022-08-20T12:20:06.432Z,17248.00
2022-08-20T12:21:06.433Z,16672.00
2022-08-20T12:22:24.474Z,15668.00
2022-08-20T12:23:06.405Z,14476.00
2022-08-20T12:24:06.384Z,14064.00
2022-08-20T12:25:06.380Z,13508.00
2022-08-20T12:26:06.373Z,12788.00
2022-08-20T12:27:06.349Z,12584.00
2022-08-20T12:28:06.346Z,13212.00
2022-08-20T12:29:06.334Z,14000.00
2022-08-20T12:30:06.316Z,13916.00
2022-08-20T12:31:06.315Z,13268.00
2022-08-20T12:32:06.309Z,14676.00
2022-08-20T12:33:06.278Z,16448.00
2022-08-20T12:34:06.268Z,17344.00
2022-08-20T12:35:06.289Z,16152.00
2022-08-20T12:36:06.269Z,17632.00
2022-08-20T12:37:06.240Z,16992.00
2022-08-20T12:38:06.224Z,16512.00
2022-08-20T12:39:06.215Z,15668.00
2022-08-20T12:40:06.279Z,15356.00
2022-08-20T12:41:06.203Z,15164.00
2022-08-20T12:42:06.187Z,15628.00
2022-08-20T12:43:06.179Z,16832.00
2022-08-20T12:44:06.157Z,16480.00
2022-08-20T12:45:06.149Z,15356.00
2022-08-20T12:49:03.182Z,17856.00
2022-08-20T12:50:03.126Z,17600.00
2022-08-20T12:51:03.129Z,18176.00
2022-08-20T12:52:03.110Z,18752.00
2022-08-20T12:53:03.099Z,18240.00
2022-08-20T12:54:03.081Z,18624.00
2022-08-20T12:55:03.067Z,19840.00
2022-08-20T12:56:03.071Z,21280.00
2022-08-20T12:57:03.048Z,21120.00
2022-08-20T12:58:03.039Z,19072.00
2022-08-20T12:59:03.037Z,16836.00
2022-08-20T13:00:03.026Z,17312.00
2022-08-20T13:01:03.068Z,16640.00
2022-08-20T13:02:09.257Z,14556.00
2022-08-20T13:03:02.992Z,16416.00
2022-08-20T13:04:02.989Z,16480.00
2022-08-20T13:05:05.225Z,15676.00
2022-08-20T13:06:02.975Z,16212.00
2022-08-20T13:07:02.952Z,16360.00
2022-08-20T13:08:02.935Z,16484.00
2022-08-20T13:09:02.931Z,17376.00
2022-08-20T13:10:02.916Z,15764.00
2022-08-20T13:11:02.913Z,14992.00
2022-08-20T13:12:02.903Z,14516.00
2022-08-20T13:13:02.885Z,15124.00
2022-08-20T13:14:02.877Z,15984.00
2022-08-20T13:15:02.875Z,16448.00
2022-08-20T13:16:02.873Z,16192.00
2022-08-20T13:17:02.858Z,14476.00
2022-08-20T13:18:02.850Z,11412.00
2022-08-20T13:20:38.282Z,12412.00
2022-08-20T13:21:38.293Z,11996.00
2022-08-20T13:22:38.270Z,11844.00
2022-08-20T13:29:38.980Z,15220.00
2022-08-20T13:30:38.955Z,22848.00
2022-08-20T13:31:38.966Z,55936.00
2022-08-20T13:32:38.942Z,53824.00
2022-08-20T13:33:38.935Z,65056.00
2022-08-20T13:34:38.932Z,65856.00
2022-08-20T13:37:10.476Z,67136.00
2022-08-20T13:38:10.438Z,60768.00
2022-08-20T13:39:10.427Z,18912.00
2022-08-20T13:40:10.468Z,64896.00
2022-08-20T13:41:10.408Z,71392.00
2022-08-20T13:42:10.410Z,77056.00
2022-08-20T13:43:12.026Z,84608.00
2022-08-20T13:44:10.386Z,87200.00
2022-08-20T13:45:10.369Z,74752.00
2022-08-20T13:46:10.359Z,82016.00
2022-08-20T13:47:10.363Z,84768.00
2022-08-20T13:48:14.913Z,84000.00
2022-08-20T13:49:10.342Z,84032.00
2022-08-20T13:50:10.327Z,80128.00
2022-08-20T13:51:10.325Z,81152.00
2022-08-20T13:52:10.320Z,80736.00
2022-08-20T13:53:10.298Z,72384.00
2022-08-20T13:54:10.801Z,72992.00
2022-08-20T13:55:10.294Z,76320.00
2022-08-20T13:56:10.279Z,78912.00
2022-08-20T13:57:10.267Z,82528.00
2022-08-20T13:58:10.260Z,42656.00
2022-08-20T14:00:22.166Z,18432.00
2022-08-20T14:05:07.392Z,83712.00
2022-08-20T14:06:07.366Z,83104.00
2022-08-20T14:07:07.376Z,84544.00
2022-08-20T14:08:07.351Z,19872.00
2022-08-20T14:09:07.355Z,18944.00
2022-08-20T14:10:07.344Z,21952.00
2022-08-20T14:11:07.325Z,76000.00
2022-08-20T14:12:07.326Z,67168.00
2022-08-20T14:13:07.316Z,19008.00
2022-08-20T14:14:07.303Z,15904.00
2022-08-20T14:15:07.290Z,15084.00
2022-08-20T14:16:07.277Z,15944.00
2022-08-20T14:17:07.279Z,19488.00
2022-08-20T14:18:07.267Z,68864.00
2022-08-20T14:19:07.248Z,18784.00
2022-08-20T14:20:07.235Z,14104.00
2022-08-20T14:24:21.492Z,72384.00
2022-08-20T14:25:21.474Z,66848.00
2022-08-20T14:26:21.468Z,68288.00
2022-08-20T14:27:21.460Z,69024.00
2022-08-20T14:28:21.468Z,68992.00
2022-08-20T14:29:21.449Z,70080.00
2022-08-20T14:30:21.435Z,69088.00
2022-08-20T14:31:21.427Z,72352.00
2022-08-20T14:32:21.416Z,69920.00
2022-08-20T14:33:21.418Z,63936.00
2022-08-20T14:34:21.387Z,65536.00
2022-08-20T14:35:21.380Z,65632.00
2022-08-20T14:36:21.372Z,67136.00
2022-08-20T14:37:21.371Z,67552.00
2022-08-20T14:38:21.379Z,65472.00
2022-08-20T14:39:21.346Z,61056.00
2022-08-20T14:40:21.395Z,61632.00
2022-08-20T14:41:21.333Z,62336.00
2022-08-20T14:42:21.326Z,64128.00
2022-08-20T14:43:21.337Z,64800.00
2022-08-20T14:44:21.308Z,62336.00
2022-08-20T14:45:21.313Z,59200.00
2022-08-20T14:46:21.304Z,46304.00
2022-08-20T14:48:40.349Z,50208.00
2022-08-20T14:49:40.300Z,47808.00
2022-08-20T14:50:40.295Z,55840.00
2022-08-20T14:51:40.289Z,56192.00
2022-08-20T14:52:40.289Z,57280.00
2022-08-20T14:53:40.791Z,60544.00
2022-08-20T14:54:40.300Z,61664.00
2022-08-20T14:55:40.263Z,62496.00
2022-08-20T14:56:40.251Z,22944.00
2022-08-20T14:57:40.254Z,54304.00
2022-08-20T14:58:40.249Z,52832.00
2022-08-20T14:59:40.231Z,47456.00
2022-08-20T15:00:40.275Z,15004.00
2022-08-20T15:03:53.511Z,22560.00
2022-08-20T15:05:00.044Z,16768.00
2022-08-20T15:06:15.279Z,47200.00
2022-08-20T15:07:13.162Z,48384.00
2022-08-20T15:08:11.135Z,48096.00
2022-08-20T15:09:11.054Z,51104.00
2022-08-20T15:10:11.040Z,55520.00
2022-08-20T15:11:11.040Z,64608.00
2022-08-20T15:12:11.022Z,71648.00
2022-08-20T15:13:11.030Z,66112.00
2022-08-20T15:14:11.020Z,60736.00
2022-08-20T15:15:15.549Z,57280.00
2022-08-20T15:16:10.991Z,54752.00
2022-08-20T15:17:10.992Z,53408.00
2022-08-20T15:18:10.987Z,54080.00
2022-08-20T15:19:10.982Z,54784.00
2022-08-20T15:20:10.961Z,54304.00
2022-08-20T15:21:10.967Z,53504.00
2022-08-20T15:22:10.955Z,53760.00
2022-08-20T15:23:10.967Z,54208.00
2022-08-20T15:24:15.776Z,52768.00
2022-08-20T15:25:10.938Z,52320.00
2022-08-20T15:26:10.924Z,51648.00
2022-08-20T15:27:10.915Z,51680.00
2022-08-20T15:28:10.922Z,52032.00
2022-08-20T15:29:10.912Z,53952.00
2022-08-20T15:30:10.911Z,54432.00
2022-08-20T15:31:10.902Z,54240.00
2022-08-20T15:32:10.885Z,53568.00
2022-08-20T15:33:10.900Z,52576.00
2022-08-20T15:34:10.883Z,51072.00
2022-08-20T15:35:10.879Z,53280.00
2022-08-20T15:36:10.871Z,52352.00
2022-08-20T15:37:10.853Z,50624.00
2022-08-20T15:38:10.873Z,50112.00
2022-08-20T15:39:10.845Z,50208.00
2022-08-20T15:40:10.981Z,49056.00
2022-08-20T15:41:10.831Z,48128.00
2022-08-20T15:42:10.827Z,48000.00
2022-08-20T15:43:10.826Z,48096.00
2022-08-20T15:44:10.826Z,48672.00
2022-08-20T15:45:10.816Z,46336.00
2022-08-20T15:46:10.802Z,43392.00
2022-08-20T15:47:10.808Z,44512.00
2022-08-20T15:48:10.803Z,46560.00
2022-08-20T15:49:10.804Z,47040.00
2022-08-20T15:50:14.116Z,45632.00
2022-08-20T15:51:10.787Z,45280.00
2022-08-20T15:52:10.771Z,43936.00
2022-08-20T15:53:10.787Z,42784.00
2022-08-20T15:54:10.781Z,42784.00
2022-08-20T15:55:10.756Z,42048.00
2022-08-20T15:56:11.224Z,42016.00
2022-08-20T15:57:10.746Z,41664.00
2022-08-20T15:58:10.747Z,41056.00
2022-08-20T15:59:10.753Z,41408.00
2022-08-20T16:00:10.727Z,42016.00
2022-08-20T16:01:24.690Z,40800.00
2022-08-20T16:02:10.723Z,39200.00
2022-08-20T16:03:10.717Z,39520.00
2022-08-20T16:04:10.732Z,39840.00
2022-08-20T16:05:10.714Z,38816.00
2022-08-20T16:06:13.865Z,37344.00
2022-08-20T16:07:10.694Z,37952.00
2022-08-20T16:08:10.693Z,37312.00
2022-08-20T16:09:10.699Z,34816.00
2022-08-20T16:10:15.087Z,35456.00
2022-08-20T16:11:10.674Z,35680.00
2022-08-20T16:12:10.677Z,35424.00
2022-08-20T16:13:10.660Z,34336.00
2022-08-20T16:14:10.669Z,34208.00
2022-08-20T16:15:10.648Z,33472.00
2022-08-20T16:16:10.642Z,33152.00
2022-08-20T16:17:10.637Z,32544.00
2022-08-20T16:18:10.639Z,33152.00
2022-08-20T16:19:10.641Z,33760.00
2022-08-20T16:20:10.621Z,32704.00
2022-08-20T16:21:10.626Z,31328.00
2022-08-20T16:22:10.618Z,30688.00
2022-08-20T16:23:10.615Z,30592.00
2022-08-20T16:24:10.790Z,29696.00
2022-08-20T16:25:10.610Z,29536.00
2022-08-20T16:26:10.600Z,29440.00
2022-08-20T16:27:10.586Z,29536.00
2022-08-20T16:28:10.591Z,29440.00
2022-08-20T16:29:11.656Z,29504.00
2022-08-20T16:30:10.572Z,28640.00
2022-08-20T16:31:14.018Z,27520.00
2022-08-20T16:32:10.562Z,27616.00
2022-08-20T16:33:10.555Z,27360.00
2022-08-20T16:34:32.273Z,26624.00
2022-08-20T16:35:10.554Z,26400.00
2022-08-20T16:36:10.553Z,26048.00
2022-08-20T16:37:10.568Z,26080.00
2022-08-20T16:38:10.530Z,25184.00
2022-08-20T16:39:10.548Z,24480.00
2022-08-20T16:40:10.551Z,23968.00
2022-08-20T16:41:10.520Z,23808.00
2022-08-20T16:42:10.509Z,23872.00
2022-08-20T16:43:10.510Z,23680.00
2022-08-20T16:44:10.519Z,23552.00
2022-08-20T16:45:10.497Z,22848.00
2022-08-20T16:46:10.494Z,22720.00
2022-08-20T16:47:13.896Z,22304.00
2022-08-20T16:48:10.479Z,22112.00
2022-08-20T16:49:10.494Z,22080.00
2022-08-20T16:50:10.462Z,22144.00
2022-08-20T16:51:10.457Z,21888.00
2022-08-20T16:52:10.453Z,20576.00
2022-08-20T16:53:10.454Z,18400.00
2022-08-20T16:54:10.450Z,15872.00
2022-08-20T16:55:10.430Z,18592.00
2022-08-20T16:56:10.430Z,19104.00
2022-08-20T16:57:15.117Z,18144.00
2022-08-20T16:58:10.411Z,13952.00
2022-08-20T16:59:10.427Z,10640.00
2022-08-20T17:00:10.395Z,7944.00
2022-08-20T17:01:10.466Z,7504.00
2022-08-20T17:02:10.891Z,6168.00
2022-08-20T17:03:10.378Z,5760.00
2022-08-20T17:04:10.389Z,5652.00
2022-08-20T17:05:10.357Z,5136.00
2022-08-20T17:06:10.347Z,4936.00
2022-08-20T17:07:11.903Z,5052.00
2022-08-20T17:08:10.343Z,4784.00
2022-08-20T17:09:10.436Z,4576.00
2022-08-20T17:10:10.308Z,4544.00
2022-08-20T17:11:10.312Z,4456.00
2022-08-20T17:12:10.300Z,4388.00
2022-08-20T17:13:10.276Z,4324.00
2022-08-20T17:14:10.291Z,4256.00
